Time;durP1;ratioP1;P1;durP2;ratioP2;P2;SDS_P1;SDS_P2;PMS_P1;PMS_P2;Temp;Humidity;BMP_temperature;BMP_pressure;BME280_temperature;BME280_humidity;BME280_pressure;Samples;Min_cycle;Max_cycle;Signal;HPM_P1;HPM_P2
2022/02/18 00:01:37;;;;;;;481.57;458.50;;;6.90;99.90;;;;;;4389443;32;20561;-64
2022/02/18 00:04:06;;;;;;;506.47;482.43;;;6.90;99.90;;;;;;4396586;32;20216;-63
2022/02/18 00:06:34;;;;;;;489.00;465.77;;;6.90;99.90;;;;;;4393633;32;20157;-62
2022/02/18 00:09:01;;;;;;;492.10;468.87;;;6.90;99.90;;;;;;4392482;32;20187;-66
2022/02/18 00:11:28;;;;;;;499.43;475.83;;;6.90;99.90;;;;;;4391254;32;20164;-65
2022/02/18 00:13:56;;;;;;;496.20;472.90;;;6.90;99.90;;;;;;4392742;32;20161;-63
2022/02/18 00:16:23;;;;;;;488.00;465.10;;;7.00;99.90;;;;;;4391227;32;20198;-63
2022/02/18 00:18:49;;;;;;;495.43;471.77;;;6.90;99.90;;;;;;4389170;32;20187;-66
2022/02/18 00:21:18;;;;;;;488.40;465.37;;;6.90;99.90;;;;;;4389480;32;20209;-63
2022/02/18 00:23:46;;;;;;;490.53;467.03;;;6.90;99.90;;;;;;4388383;32;20591;-64
2022/02/18 00:26:13;;;;;;;507.53;483.13;;;6.90;99.90;;;;;;4393396;32;20153;-63
2022/02/18 00:28:42;;;;;;;506.90;482.33;;;6.90;99.90;;;;;;4393290;32;20178;-63
2022/02/18 00:31:09;;;;;;;519.53;493.37;;;6.90;99.90;;;;;;4393096;32;20148;-66
2022/02/18 00:33:36;;;;;;;506.83;482.60;;;6.90;99.90;;;;;;4396051;32;20179;-63
2022/02/18 00:36:03;;;;;;;517.03;491.67;;;6.90;99.90;;;;;;4405796;32;20173;-68
2022/02/18 00:38:35;;;;;;;482.80;459.93;;;7.00;99.90;;;;;;4395574;32;20480;-63
2022/02/18 00:41:01;;;;;;;512.30;487.50;;;7.00;99.90;;;;;;4397518;32;20164;-67
2022/02/18 00:43:28;;;;;;;508.63;483.90;;;7.00;99.90;;;;;;4401366;32;20160;-64
2022/02/18 00:45:55;;;;;;;527.73;502.00;;;7.00;99.90;;;;;;4400987;32;20565;-64
2022/02/18 00:48:28;;;;;;;544.17;517.37;;;7.00;99.90;;;;;;4405700;32;20155;-64
2022/02/18 00:50:55;;;;;;;527.33;501.50;;;7.00;99.90;;;;;;4392197;32;20152;-63
2022/02/18 00:53:22;;;;;;;531.93;505.30;;;7.00;99.90;;;;;;4394630;32;20164;-65
2022/02/18 00:55:52;;;;;;;516.97;492.27;;;7.00;99.90;;;;;;4392642;32;20546;-65
2022/02/18 00:58:20;;;;;;;533.40;506.87;;;7.00;99.90;;;;;;4396607;32;20152;-66
2022/02/18 01:00:50;;;;;;;536.83;509.30;;;7.00;99.90;;;;;;4399457;32;20180;-63
2022/02/18 01:03:17;;;;;;;534.07;507.13;;;7.00;99.90;;;;;;4407404;32;20187;-65
2022/02/18 01:05:47;;;;;;;542.40;514.63;;;7.00;99.90;;;;;;4403435;32;20694;-64
2022/02/18 01:08:14;;;;;;;519.57;493.13;;;7.00;99.90;;;;;;4395424;32;20598;-67
2022/02/18 01:10:41;;;;;;;519.03;494.03;;;7.10;99.90;;;;;;4396233;32;20182;-63
2022/02/18 01:13:10;;;;;;;549.33;521.67;;;7.10;99.90;;;;;;4394759;32;20148;-62
2022/02/18 01:15:37;;;;;;;527.30;501.40;;;7.10;99.90;;;;;;4397249;32;20196;-64
2022/02/18 01:18:05;;;;;;;541.70;513.80;;;7.10;99.90;;;;;;4398463;32;20151;-65
2022/02/18 01:20:32;;;;;;;529.57;502.90;;;7.10;99.90;;;;;;4401780;32;20151;-63
2022/02/18 01:22:59;;;;;;;549.47;522.63;;;7.10;99.90;;;;;;4400051;32;20153;-63
2022/02/18 01:25:26;;;;;;;528.87;502.43;;;7.10;99.90;;;;;;4392932;32;20163;-64
2022/02/18 01:27:56;;;;;;;514.13;489.50;;;7.10;99.90;;;;;;4396904;32;20246;-67
2022/02/18 01:30:27;;;;;;;523.47;497.27;;;7.20;99.90;;;;;;4396265;32;20155;-63
2022/02/18 01:32:55;;;;;;;526.67;499.70;;;7.10;99.90;;;;;;4391315;32;20160;-63
2022/02/18 01:35:22;;;;;;;539.00;511.30;;;7.10;99.90;;;;;;4398456;32;20152;-63
2022/02/18 01:37:51;;;;;;;525.20;499.00;;;7.10;99.90;;;;;;4406101;32;20160;-63
2022/02/18 01:40:20;;;;;;;528.33;501.90;;;7.20;99.90;;;;;;4392556;32;20166;-64
2022/02/18 01:42:47;;;;;;;529.73;503.23;;;7.20;99.90;;;;;;4391385;32;20248;-63
2022/02/18 01:45:18;;;;;;;517.30;492.43;;;7.30;99.90;;;;;;4394137;32;20586;-67
2022/02/18 01:47:52;;;;;;;527.37;500.63;;;7.30;99.90;;;;;;4388880;32;20184;-64
2022/02/18 01:50:19;;;;;;;521.90;496.70;;;7.30;99.90;;;;;;4392307;32;20565;-63
2022/02/18 01:52:50;;;;;;;513.23;487.40;;;7.40;99.90;;;;;;4402012;32;20156;-64
2022/02/18 01:55:19;;;;;;;517.70;491.67;;;7.50;99.90;;;;;;4393212;32;20156;-68
2022/02/18 01:57:51;;;;;;;541.67;513.73;;;7.50;99.90;;;;;;4395608;32;20180;-63
2022/02/18 02:00:21;;;;;;;523.20;497.27;;;7.50;99.90;;;;;;4400450;32;20157;-67
2022/02/18 02:02:50;;;;;;;506.40;480.87;;;7.50;99.90;;;;;;4392805;32;20235;-65
2022/02/18 02:05:18;;;;;;;530.50;504.20;;;7.40;99.90;;;;;;4392669;32;20192;-63
2022/02/18 02:07:46;;;;;;;509.50;483.90;;;7.50;99.90;;;;;;4402871;32;20246;-68
2022/02/18 02:10:14;;;;;;;519.07;493.73;;;7.50;99.90;;;;;;4401192;32;20602;-63
2022/02/18 02:12:43;;;;;;;515.97;490.33;;;7.60;99.90;;;;;;4405428;32;20153;-63
2022/02/18 02:15:12;;;;;;;523.27;497.30;;;7.60;99.90;;;;;;4400747;32;20221;-63
2022/02/18 02:17:41;;;;;;;523.67;498.37;;;7.60;99.90;;;;;;4405454;32;20608;-63
2022/02/18 02:20:12;;;;;;;513.93;488.63;;;7.60;99.90;;;;;;4396053;32;20180;-63
2022/02/18 02:22:41;;;;;;;509.27;483.43;;;7.60;99.90;;;;;;4396098;32;20220;-63
2022/02/18 02:25:08;;;;;;;513.30;488.43;;;7.60;99.90;;;;;;4398137;32;20171;-63
2022/02/18 02:27:36;;;;;;;506.43;481.57;;;7.70;99.90;;;;;;4392514;32;20145;-63
2022/02/18 02:30:05;;;;;;;499.47;475.67;;;7.70;99.90;;;;;;4396135;32;20153;-63
2022/02/18 02:32:31;;;;;;;496.63;472.50;;;7.60;99.90;;;;;;4400107;32;20152;-64
2022/02/18 02:34:58;;;;;;;489.00;464.97;;;7.70;99.90;;;;;;4388459;32;20193;-64
2022/02/18 02:37:25;;;;;;;501.13;476.60;;;7.70;99.90;;;;;;4390380;32;20152;-64
2022/02/18 02:39:54;;;;;;;495.73;471.93;;;7.60;99.90;;;;;;4391992;32;20165;-63
2022/02/18 02:42:22;;;;;;;495.40;471.57;;;7.70;99.90;;;;;;4389324;32;20156;-63
2022/02/18 02:44:49;;;;;;;507.03;482.53;;;7.60;99.90;;;;;;4390213;32;20209;-63
2022/02/18 02:47:18;;;;;;;502.43;478.03;;;7.70;99.90;;;;;;4390008;32;20561;-63
2022/02/18 02:49:48;;;;;;;497.60;472.97;;;7.60;99.90;;;;;;4398043;32;20153;-63
2022/02/18 02:52:15;;;;;;;510.93;485.97;;;7.60;99.90;;;;;;4391610;32;20157;-63
2022/02/18 02:54:43;;;;;;;496.77;471.97;;;7.50;99.90;;;;;;4393669;32;20207;-63
2022/02/18 02:57:16;;;;;;;521.87;496.00;;;7.50;99.90;;;;;;4396834;32;20521;-63
2022/02/18 02:59:42;;;;;;;495.63;471.90;;;7.50;99.90;;;;;;4400297;32;20691;-63
2022/02/18 03:02:10;;;;;;;520.57;494.17;;;7.50;99.90;;;;;;4394006;32;20162;-64
2022/02/18 03:04:36;;;;;;;503.30;478.53;;;7.50;99.90;;;;;;4394488;32;20156;-63
2022/02/18 03:07:04;;;;;;;509.37;484.10;;;7.50;99.90;;;;;;4394104;32;20565;-64
2022/02/18 03:09:34;;;;;;;510.47;485.50;;;7.50;99.90;;;;;;4399916;32;20208;-63
2022/02/18 03:12:01;;;;;;;510.63;485.23;;;7.50;99.90;;;;;;4400448;32;20156;-63
2022/02/18 03:14:30;;;;;;;493.53;469.70;;;7.50;99.90;;;;;;4396545;32;20214;-63
2022/02/18 03:16:56;;;;;;;521.50;495.87;;;7.50;99.90;;;;;;4395473;32;20194;-63
2022/02/18 03:19:23;;;;;;;495.37;470.70;;;7.60;99.90;;;;;;4391588;32;20153;-63
2022/02/18 03:21:56;;;;;;;496.07;471.57;;;7.60;99.90;;;;;;4394960;32;20212;-67
2022/02/18 03:24:24;;;;;;;514.73;489.27;;;7.60;99.90;;;;;;4390677;32;20594;-66
2022/02/18 03:26:52;;;;;;;509.07;484.60;;;7.70;99.90;;;;;;4397145;32;20152;-66
2022/02/18 03:29:19;;;;;;;514.40;488.60;;;7.70;99.90;;;;;;4389559;32;20188;-65
2022/02/18 03:31:48;;;;;;;540.93;513.87;;;7.70;99.90;;;;;;4396749;32;20211;-67
2022/02/18 03:34:17;;;;;;;531.27;503.93;;;7.70;99.90;;;;;;4393430;32;20144;-66
2022/02/18 03:36:46;;;;;;;521.13;495.10;;;7.70;99.90;;;;;;4393953;32;20214;-64
2022/02/18 03:39:13;;;;;;;535.10;507.47;;;7.80;99.90;;;;;;4394279;32;20158;-65
2022/02/18 03:41:40;;;;;;;522.47;495.67;;;7.80;99.90;;;;;;4396823;32;20156;-64
2022/02/18 03:44:08;;;;;;;530.33;503.30;;;7.80;99.90;;;;;;4394874;32;20175;-65
2022/02/18 03:46:35;;;;;;;540.17;512.43;;;7.70;99.90;;;;;;4398643;32;20164;-66
2022/02/18 03:49:04;;;;;;;517.00;490.90;;;7.70;99.90;;;;;;4394769;32;20148;-66
2022/02/18 03:51:31;;;;;;;527.73;499.97;;;7.70;99.90;;;;;;4389936;32;20173;-66
2022/02/18 03:53:58;;;;;;;548.40;519.87;;;7.70;99.90;;;;;;4390302;32;20244;-64
2022/02/18 03:56:25;;;;;;;550.23;521.93;;;7.70;99.90;;;;;;4394032;32;20156;-63
2022/02/18 03:58:52;;;;;;;534.93;506.97;;;7.70;99.90;;;;;;4393971;32;20153;-63
2022/02/18 04:01:19;;;;;;;536.43;508.50;;;7.60;99.90;;;;;;4396188;32;20214;-64
2022/02/18 04:03:49;;;;;;;532.80;504.47;;;7.60;99.90;;;;;;4402764;32;20138;-67
2022/02/18 04:06:18;;;;;;;520.50;493.47;;;7.60;99.90;;;;;;4394289;32;20172;-63
2022/02/18 04:08:44;;;;;;;540.47;512.53;;;7.60;99.90;;;;;;4400409;32;20182;-65
2022/02/18 04:11:16;;;;;;;520.63;495.00;;;7.60;99.90;;;;;;4396689;32;20156;-63
2022/02/18 04:13:43;;;;;;;540.60;512.53;;;7.60;99.90;;;;;;4396106;32;20169;-67
2022/02/18 04:16:11;;;;;;;516.37;489.97;;;7.60;99.90;;;;;;4397465;32;20206;-67
2022/02/18 04:18:39;;;;;;;525.13;498.07;;;7.70;99.90;;;;;;4394309;32;20159;-63
2022/02/18 04:21:09;;;;;;;544.17;515.57;;;7.60;99.90;;;;;;4392113;32;20618;-66
2022/02/18 04:23:37;;;;;;;526.00;498.27;;;7.70;99.90;;;;;;4392510;32;20156;-64
2022/02/18 04:26:04;;;;;;;535.10;506.80;;;7.60;99.90;;;;;;4390981;32;20168;-67
2022/02/18 04:28:31;;;;;;;532.70;505.77;;;7.70;99.90;;;;;;4394943;32;20174;-65
2022/02/18 04:31:01;;;;;;;534.80;507.50;;;7.60;99.90;;;;;;4394409;32;20145;-64
2022/02/18 04:33:28;;;;;;;527.13;500.40;;;7.70;99.90;;;;;;4399813;32;20300;-67
2022/02/18 04:35:55;;;;;;;541.93;513.53;;;7.70;99.90;;;;;;4403543;32;20175;-65
2022/02/18 04:38:22;;;;;;;546.60;518.13;;;7.70;99.90;;;;;;4404075;32;20205;-66
2022/02/18 04:40:50;;;;;;;557.03;527.90;;;7.60;99.90;;;;;;4396166;32;20183;-64
2022/02/18 04:43:17;;;;;;;539.83;511.43;;;7.70;99.90;;;;;;4394740;32;20148;-66
2022/02/18 04:45:47;;;;;;;519.27;492.23;;;7.70;99.90;;;;;;4400341;32;20191;-69
2022/02/18 04:48:14;;;;;;;525.40;497.13;;;7.70;99.90;;;;;;4393042;32;20163;-66
2022/02/18 04:50:41;;;;;;;517.17;490.33;;;7.70;99.90;;;;;;4392875;32;20161;-62
2022/02/18 04:53:08;;;;;;;531.80;504.20;;;7.70;99.90;;;;;;4392453;32;20140;-64
2022/02/18 04:55:35;;;;;;;534.80;506.83;;;7.70;99.90;;;;;;4400617;32;20485;-66
2022/02/18 04:58:03;;;;;;;550.67;521.17;;;7.70;99.90;;;;;;4396388;32;20147;-66
2022/02/18 05:00:33;;;;;;;528.67;500.80;;;7.60;99.90;;;;;;4399339;32;20202;-63
2022/02/18 05:03:04;;;;;;;540.13;512.03;;;7.60;99.90;;;;;;4392339;32;20156;-65
2022/02/18 05:05:31;;;;;;;546.10;516.67;;;7.60;99.90;;;;;;4392983;32;20157;-63
2022/02/18 05:07:58;;;;;;;542.33;514.50;;;7.70;99.90;;;;;;4391606;32;20175;-63
2022/02/18 05:10:25;;;;;;;541.83;512.87;;;7.70;99.90;;;;;;4396685;32;20160;-63
2022/02/18 05:12:52;;;;;;;538.27;510.27;;;7.70;99.90;;;;;;4393201;32;20159;-63
2022/02/18 05:15:20;;;;;;;552.20;523.20;;;7.70;99.90;;;;;;4399848;32;20168;-63
2022/02/18 05:17:48;;;;;;;543.47;514.20;;;7.70;99.90;;;;;;4401420;32;20174;-63
2022/02/18 05:20:16;;;;;;;545.40;516.20;;;7.70;99.90;;;;;;4399498;32;20626;-68
2022/02/18 05:22:43;;;;;;;528.43;500.53;;;7.70;99.90;;;;;;4406383;32;20152;-67
2022/02/18 05:25:10;;;;;;;540.33;512.37;;;7.70;99.90;;;;;;4400813;32;20626;-64
2022/02/18 05:27:37;;;;;;;535.27;507.57;;;7.70;99.90;;;;;;4400016;32;20156;-66
2022/02/18 05:30:04;;;;;;;533.93;506.17;;;7.70;99.90;;;;;;4401277;32;20180;-65
2022/02/18 05:32:33;;;;;;;544.77;515.37;;;7.70;99.90;;;;;;4395497;32;20172;-67
2022/02/18 05:35:00;;;;;;;522.13;495.07;;;7.80;99.90;;;;;;4398661;32;20186;-68
2022/02/18 05:37:26;;;;;;;485.17;460.43;;;7.80;99.90;;;;;;4406491;32;20166;-66
2022/02/18 05:39:55;;;;;;;437.13;415.17;;;7.80;99.90;;;;;;4396527;32;20170;-62
2022/02/18 05:42:22;;;;;;;434.37;412.70;;;7.80;99.90;;;;;;4391392;32;20172;-63
2022/02/18 05:44:49;;;;;;;431.90;409.93;;;7.90;99.90;;;;;;4391337;32;20153;-63
2022/02/18 05:47:16;;;;;;;423.43;402.63;;;7.80;99.90;;;;;;4392373;32;20174;-63
2022/02/18 05:49:44;;;;;;;428.07;406.53;;;7.80;99.90;;;;;;4398671;32;20152;-65
2022/02/18 05:52:11;;;;;;;435.27;414.73;;;7.80;99.90;;;;;;4393317;32;20535;-63
2022/02/18 05:54:38;;;;;;;429.43;409.17;;;7.70;99.90;;;;;;4395462;32;20584;-68
2022/02/18 05:57:05;;;;;;;432.93;411.40;;;7.70;99.90;;;;;;4406321;32;20567;-66
2022/02/18 05:59:32;;;;;;;435.50;413.57;;;7.80;99.90;;;;;;4399601;32;20449;-65
2022/02/18 06:01:59;;;;;;;406.30;386.00;;;7.70;99.90;;;;;;4398567;32;20198;-62
2022/02/18 06:04:26;;;;;;;431.43;410.63;;;7.70;99.90;;;;;;4398595;32;20164;-62
2022/02/18 06:06:54;;;;;;;413.00;392.57;;;7.70;99.90;;;;;;4391708;32;20144;-63
2022/02/18 06:09:23;;;;;;;426.03;405.07;;;7.70;99.90;;;;;;4391496;32;20572;-63
2022/02/18 06:11:49;;;;;;;397.80;378.23;;;7.70;99.90;;;;;;4392354;32;20570;-63
2022/02/18 06:14:24;;;;;;;424.93;402.67;;;7.70;99.90;;;;;;4391887;32;20148;-62
2022/02/18 06:16:51;;;;;;;423.30;402.63;;;7.80;99.90;;;;;;4390816;32;20186;-63
2022/02/18 06:19:18;;;;;;;411.60;391.07;;;7.60;99.90;;;;;;4394859;32;20148;-62
2022/02/18 06:21:45;;;;;;;418.83;397.70;;;7.60;99.90;;;;;;4398084;32;20152;-63
2022/02/18 06:24:13;;;;;;;443.07;421.10;;;7.60;99.90;;;;;;4398006;32;20160;-62
2022/02/18 06:26:40;;;;;;;410.03;389.70;;;7.60;99.90;;;;;;4395760;32;20159;-62
2022/02/18 06:29:07;;;;;;;437.93;416.50;;;7.60;99.90;;;;;;4394769;32;20164;-63
2022/02/18 06:31:58;;;;;;;;;;;;;;;;;;;;;
2022/02/18 06:34:27;;;;;;;398.57;379.93;;;7.60;99.90;;;;;;4393313;32;20163;-63
2022/02/18 06:37:04;;;;;;;405.23;386.00;;;7.60;99.90;;;;;;4396425;32;20171;-63
2022/02/18 06:39:46;;;;;;;425.80;405.47;;;7.70;99.90;;;;;;4396743;32;20179;-63
2022/02/18 06:42:16;;;;;;;406.23;386.07;;;7.80;99.90;;;;;;4394376;32;20203;-63
2022/02/18 06:45:26;;;;;;;429.13;407.63;;;7.80;99.90;;;;;;4397226;32;20166;-63
2022/02/18 06:48:09;;;;;;;401.23;381.33;;;7.70;99.90;;;;;;4306124;33;20142;-63
2022/02/18 06:50:52;;;;;;;391.67;372.63;;;7.70;99.90;;;;;;4267937;33;20172;-63
2022/02/18 06:53:19;;;;;;;407.20;388.00;;;7.60;99.90;;;;;;4272048;33;20167;-63
2022/02/18 06:55:51;;;;;;;420.63;400.37;;;7.60;99.90;;;;;;4271258;33;20607;-63
2022/02/18 06:58:18;;;;;;;392.30;373.60;;;7.50;99.90;;;;;;4273513;33;20273;-63
2022/02/18 07:00:57;;;;;;;400.50;380.53;;;7.50;99.90;;;;;;4269199;33;20207;-62
2022/02/18 07:03:34;;;;;;;397.13;377.77;;;7.50;99.90;;;;;;4269529;33;20219;-63
2022/02/18 07:06:20;;;;;;;399.87;380.37;;;7.50;99.90;;;;;;4268008;33;20190;-62
2022/02/18 07:08:57;;;;;;;376.87;358.03;;;7.50;99.90;;;;;;4267845;33;20147;-63
2022/02/18 07:11:37;;;;;;;372.10;353.37;;;7.60;99.90;;;;;;4268655;33;20171;-63
2022/02/18 07:14:07;;;;;;;361.50;344.37;;;7.50;99.90;;;;;;4267937;33;20226;-65
2022/02/18 07:16:39;;;;;;;382.13;362.70;;;7.50;99.90;;;;;;4269638;33;20155;-65
2022/02/18 07:19:10;;;;;;;390.73;371.73;;;7.50;99.90;;;;;;4327958;33;20161;-62
2022/02/18 07:21:37;;;;;;;387.83;369.83;;;7.60;99.90;;;;;;4342038;33;20193;-62
2022/02/18 07:24:10;;;;;;;405.73;385.07;;;7.50;99.90;;;;;;4337355;33;20253;-63
2022/02/18 07:26:40;;;;;;;385.53;367.23;;;7.60;99.90;;;;;;4341488;33;20161;-62
2022/02/18 07:29:37;;;;;;;376.90;358.60;;;7.60;99.90;;;;;;4393835;32;20160;-62
2022/02/18 07:32:15;;;;;;;379.40;361.33;;;7.60;99.90;;;;;;4388998;32;20158;-63
2022/02/18 07:34:44;;;;;;;362.83;345.47;;;7.70;99.90;;;;;;4389364;32;20624;-67
2022/02/18 07:37:11;;;;;;;360.77;342.77;;;7.70;99.90;;;;;;4392758;32;20181;-62
2022/02/18 07:39:41;;;;;;;364.17;346.10;;;7.70;99.90;;;;;;4392052;32;20329;-63
2022/02/18 07:42:17;;;;;;;393.50;374.80;;;7.70;99.90;;;;;;4388502;32;20165;-68
2022/02/18 07:44:46;;;;;;;356.10;338.83;;;7.80;99.90;;;;;;4392576;32;20577;-63
2022/02/18 07:47:16;;;;;;;357.63;340.63;;;7.80;99.90;;;;;;4393586;32;20151;-65
2022/02/18 07:49:52;;;;;;;389.00;370.70;;;7.80;99.90;;;;;;4400103;32;20497;-66
2022/02/18 07:52:22;;;;;;;354.50;338.03;;;7.80;99.90;;;;;;4389900;32;20144;-65
2022/02/18 07:54:55;;;;;;;394.20;374.73;;;7.90;99.90;;;;;;4388816;32;20157;-63
2022/02/18 07:57:32;;;;;;;381.43;363.13;;;7.90;99.90;;;;;;4393789;32;20261;-63
2022/02/18 08:00:02;;;;;;;385.33;366.97;;;7.90;99.90;;;;;;4389900;32;20200;-64
2022/02/18 08:02:29;;;;;;;374.23;355.50;;;8.00;99.90;;;;;;4394335;32;20158;-64
2022/02/18 08:05:19;;;;;;;395.17;376.23;;;8.00;99.90;;;;;;4397952;32;20205;-63
2022/02/18 08:07:49;;;;;;;384.97;366.47;;;8.10;99.90;;;;;;4396225;32;20198;-62
2022/02/18 08:10:16;;;;;;;389.30;370.13;;;8.10;99.90;;;;;;4393033;32;20503;-65
2022/02/18 08:12:51;;;;;;;395.53;377.20;;;8.10;99.90;;;;;;4395554;32;20154;-64
2022/02/18 08:15:18;;;;;;;396.40;377.80;;;8.10;99.90;;;;;;4394683;32;20276;-67
2022/02/18 08:17:51;;;;;;;401.23;382.10;;;8.20;99.90;;;;;;4393361;32;20159;-65
2022/02/18 08:20:26;;;;;;;400.07;381.13;;;8.20;99.90;;;;;;4389985;32;20186;-64
2022/02/18 08:22:59;;;;;;;418.73;397.80;;;8.20;99.90;;;;;;4394441;32;20204;-65
2022/02/18 08:25:35;;;;;;;409.17;389.83;;;8.20;99.90;;;;;;4391298;32;20552;-64
2022/02/18 08:28:15;;;;;;;429.77;409.77;;;8.30;99.90;;;;;;4380668;32;20227;-67
2022/02/18 08:30:47;;;;;;;412.37;393.47;;;8.30;99.90;;;;;;4391958;32;20211;-66
2022/02/18 08:33:27;;;;;;;424.17;403.93;;;8.30;99.90;;;;;;4391896;32;20144;-64
2022/02/18 08:35:55;;;;;;;435.67;415.63;;;8.40;99.90;;;;;;4393543;32;20203;-65
2022/02/18 08:38:23;;;;;;;469.17;447.30;;;8.40;99.90;;;;;;4393477;32;20166;-63
2022/02/18 08:41:01;;;;;;;472.27;449.83;;;8.40;99.90;;;;;;4394725;32;20566;-65
2022/02/18 08:43:35;;;;;;;473.17;450.40;;;8.50;99.90;;;;;;4395534;32;20193;-64
2022/02/18 08:46:12;;;;;;;424.50;404.67;;;8.60;99.90;;;;;;4400661;32;20211;-63
2022/02/18 08:48:39;;;;;;;403.10;384.20;;;8.70;99.90;;;;;;4388935;32;20176;-64
2022/02/18 08:51:14;;;;;;;383.57;366.43;;;8.70;99.90;;;;;;4392702;32;20489;-66
2022/02/18 08:53:43;;;;;;;377.10;359.60;;;8.80;99.90;;;;;;4397434;32;20587;-66
2022/02/18 08:56:13;;;;;;;387.03;369.00;;;8.80;99.90;;;;;;4396367;32;20144;-63
2022/02/18 08:58:45;;;;;;;401.17;382.27;;;8.90;99.90;;;;;;4400192;32;20209;-63
2022/02/18 09:01:19;;;;;;;376.90;359.57;;;8.90;99.90;;;;;;4397894;32;20186;-63
2022/02/18 09:03:49;;;;;;;380.67;362.63;;;9.00;99.90;;;;;;4394432;32;20160;-64
2022/02/18 09:06:17;;;;;;;396.87;379.07;;;9.00;99.90;;;;;;4397332;32;20230;-64
2022/02/18 09:08:45;;;;;;;389.33;371.67;;;9.10;99.90;;;;;;4395238;32;20152;-65
2022/02/18 09:11:18;;;;;;;383.27;365.80;;;9.10;99.90;;;;;;4401112;32;20546;-66
2022/02/18 09:13:49;;;;;;;325.83;311.53;;;9.20;99.90;;;;;;4391635;32;20221;-65
2022/02/18 09:16:17;;;;;;;324.37;309.77;;;9.20;99.90;;;;;;4399585;32;20183;-67
2022/02/18 09:18:52;;;;;;;334.67;319.90;;;9.20;99.90;;;;;;4391771;32;20175;-63
2022/02/18 09:21:23;;;;;;;338.13;323.10;;;9.30;99.90;;;;;;4391250;32;20264;-64
2022/02/18 09:23:50;;;;;;;335.30;320.73;;;9.30;99.90;;;;;;4394922;32;20148;-65
2022/02/18 09:26:20;;;;;;;369.33;352.77;;;9.40;99.90;;;;;;4403498;32;20209;-65
2022/02/18 09:28:52;;;;;;;338.50;323.90;;;9.40;99.90;;;;;;4395844;32;20140;-62
2022/02/18 09:31:21;;;;;;;345.50;330.23;;;9.50;99.90;;;;;;4395659;32;20522;-65
2022/02/18 09:33:51;;;;;;;350.80;335.53;;;9.50;99.90;;;;;;4392269;32;20638;-67
2022/02/18 09:36:18;;;;;;;338.60;323.27;;;9.50;99.90;;;;;;4393665;32;20201;-68
2022/02/18 09:38:56;;;;;;;371.80;355.17;;;9.60;99.90;;;;;;4403287;32;20591;-66
2022/02/18 09:41:43;;;;;;;358.80;342.80;;;9.60;99.90;;;;;;4392225;32;20186;-65
2022/02/18 09:44:15;;;;;;;341.17;325.87;;;9.70;99.90;;;;;;4398006;32;20204;-67
2022/02/18 09:46:53;;;;;;;347.07;331.87;;;9.70;99.90;;;;;;4396416;32;20149;-65
2022/02/18 09:49:32;;;;;;;360.37;344.60;;;9.70;99.90;;;;;;4393359;32;20224;-68
2022/02/18 09:52:12;;;;;;;365.63;349.60;;;9.80;99.90;;;;;;4396682;32;20203;-65
2022/02/18 09:54:48;;;;;;;355.37;339.03;;;9.80;99.90;;;;;;4401561;32;20199;-65
2022/02/18 09:57:17;;;;;;;382.27;365.33;;;9.90;99.90;;;;;;4399280;32;20531;-62
2022/02/18 09:59:50;;;;;;;365.00;348.97;;;9.90;99.90;;;;;;4392865;32;20147;-67
2022/02/18 10:02:29;;;;;;;350.20;334.97;;;10.00;99.90;;;;;;4398674;32;20136;-64
2022/02/18 10:08:10;;;;;;;352.73;337.43;;;10.00;99.90;;;;;;4393444;32;20941;-65
2022/02/18 10:10:41;;;;;;;358.40;342.27;;;10.00;99.90;;;;;;4392242;32;20508;-66
2022/02/18 10:13:29;;;;;;;363.03;347.27;;;10.10;99.90;;;;;;4393334;32;20227;-66
2022/02/18 10:16:11;;;;;;;363.50;347.93;;;10.10;99.90;;;;;;4393223;32;20181;-65
2022/02/18 10:18:52;;;;;;;357.23;341.73;;;10.20;99.90;;;;;;4397021;32;20170;-64
2022/02/18 10:21:22;;;;;;;360.90;345.77;;;10.30;99.90;;;;;;4397175;32;20629;-66
2022/02/18 10:23:51;;;;;;;367.37;351.97;;;10.30;99.90;;;;;;4391658;32;20652;-63
2022/02/18 10:26:37;;;;;;;367.67;351.90;;;10.40;99.90;;;;;;4391935;32;20489;-65
2022/02/18 10:29:04;;;;;;;357.17;342.00;;;10.50;99.90;;;;;;4401027;32;20262;-67
2022/02/18 10:31:36;;;;;;;362.80;347.23;;;10.50;99.90;;;;;;4398402;32;20157;-66
2022/02/18 10:34:17;;;;;;;356.77;341.63;;;10.60;99.90;;;;;;4397023;32;20194;-68
2022/02/18 10:36:57;;;;;;;354.47;339.70;;;10.60;99.90;;;;;;4391880;32;20214;-65
2022/02/18 10:39:33;;;;;;;332.97;319.10;;;10.70;99.90;;;;;;4391788;32;20244;-68
2022/02/18 10:42:08;;;;;;;349.47;334.77;;;10.70;99.90;;;;;;4394051;32;20211;-65
2022/02/18 10:44:38;;;;;;;324.47;311.20;;;10.80;99.90;;;;;;4396907;32;20200;-64
2022/02/18 10:47:26;;;;;;;333.23;319.53;;;10.80;99.90;;;;;;4395198;32;20224;-65
2022/02/18 10:49:58;;;;;;;316.87;304.00;;;10.80;99.90;;;;;;4391884;32;20490;-67
2022/02/18 10:52:26;;;;;;;319.37;306.23;;;10.80;99.90;;;;;;4393383;32;20201;-64
2022/02/18 10:55:07;;;;;;;318.73;305.60;;;10.90;99.90;;;;;;4389286;32;20217;-65
2022/02/18 10:57:36;;;;;;;318.40;305.43;;;10.90;99.90;;;;;;4393299;32;20179;-65
2022/02/18 11:00:19;;;;;;;313.57;300.73;;;10.90;99.90;;;;;;4395888;32;20144;-67
2022/02/18 11:03:01;;;;;;;290.73;279.03;;;11.00;99.90;;;;;;4395549;32;20554;-68
2022/02/18 11:05:33;;;;;;;262.73;252.17;;;11.10;99.90;;;;;;4397855;32;20155;-68
2022/02/18 11:08:03;;;;;;;260.07;249.77;;;11.20;99.90;;;;;;4393051;32;20269;-69
2022/02/18 11:10:39;;;;;;;251.13;240.90;;;11.30;99.90;;;;;;4392454;32;20148;-69
2022/02/18 11:13:12;;;;;;;249.63;239.80;;;11.40;99.90;;;;;;4395984;32;20211;-66
2022/02/18 11:15:47;;;;;;;250.10;240.03;;;11.50;99.90;;;;;;4395273;32;20140;-65
2022/02/18 11:18:30;;;;;;;238.67;229.30;;;11.60;99.90;;;;;;4376393;32;20226;-67
2022/02/18 11:21:23;;;;;;;220.00;211.27;;;11.70;99.90;;;;;;4382278;32;20148;-65
2022/02/18 11:24:20;;;;;;;214.00;205.60;;;11.80;99.90;;;;;;4375671;32;20167;-64
2022/02/18 11:26:51;;;;;;;203.27;195.33;;;11.90;99.90;;;;;;4377018;32;20172;-66
2022/02/18 11:32:23;;;;;;;205.77;197.57;;;11.90;99.90;;;;;;4379111;32;20218;-66
2022/02/18 11:35:14;;;;;;;207.73;199.37;;;11.90;99.90;;;;;;4380429;32;20244;-66
2022/02/18 11:38:06;;;;;;;213.13;204.77;;;12.00;99.90;;;;;;4380912;32;20211;-63
2022/02/18 11:40:55;;;;;;;204.60;196.47;;;12.10;99.90;;;;;;4378914;32;20215;-66
2022/02/18 11:43:27;;;;;;;197.10;189.37;;;12.20;99.90;;;;;;4385582;32;20183;-68
2022/02/18 11:46:02;;;;;;;193.73;186.13;;;12.30;99.90;;;;;;4381042;32;20219;-64
2022/02/18 11:48:44;;;;;;;198.03;190.23;;;12.30;99.90;;;;;;4384036;32;20480;-68
2022/02/18 11:51:17;;;;;;;193.83;186.03;;;12.20;99.90;;;;;;4381272;32;20167;-66
2022/02/18 11:53:57;;;;;;;190.53;182.90;;;12.30;99.90;;;;;;4383286;32;20180;-63
2022/02/18 11:56:41;;;;;;;210.43;202.10;;;12.30;99.90;;;;;;4376557;32;20187;-66
2022/02/18 11:59:14;;;;;;;187.33;179.87;;;12.30;99.90;;;;;;4377543;32;20202;-63
2022/02/18 12:02:08;;;;;;;178.73;171.43;;;12.20;99.90;;;;;;4381132;32;20153;-67
2022/02/18 12:05:03;;;;;;;203.03;194.90;;;12.00;99.90;;;;;;4380229;32;20144;-65
2022/02/18 12:07:32;;;;;;;204.17;196.20;;;12.00;99.90;;;;;;4379895;32;20149;-66
2022/02/18 12:10:13;;;;;;;221.97;213.27;;;11.90;99.90;;;;;;4379538;32;20207;-65
2022/02/18 12:12:44;;;;;;;243.30;233.27;;;11.80;99.90;;;;;;4376536;32;20157;-66
2022/02/18 12:15:32;;;;;;;234.43;224.50;;;11.60;99.90;;;;;;4377542;32;20167;-65
2022/02/18 12:18:08;;;;;;;239.57;229.53;;;11.00;99.90;;;;;;4392590;32;20511;-64
2022/02/18 12:20:43;;;;;;;233.10;223.13;;;10.40;99.90;;;;;;4392020;32;20598;-63
2022/02/18 12:23:29;;;;;;;242.93;232.50;;;10.10;99.90;;;;;;4394696;32;20230;-62
2022/02/18 12:26:34;;;;;;;246.37;236.03;;;9.90;99.90;;;;;;4396566;32;20148;-63
2022/02/18 12:29:44;;;;;;;225.50;215.53;;;9.80;99.90;;;;;;4392779;32;20155;-66
2022/02/18 12:32:15;;;;;;;219.80;209.87;;;9.70;99.90;;;;;;4396822;32;20152;-63
2022/02/18 12:37:45;;;;;;;220.97;210.93;;;9.50;99.90;;;;;;4393469;32;20530;-65
2022/02/18 12:40:28;;;;;;;231.77;220.93;;;9.40;99.90;;;;;;4392333;32;20175;-63
2022/02/18 12:42:58;;;;;;;231.50;221.57;;;9.40;99.90;;;;;;4399362;32;20231;-63
2022/02/18 12:45:54;;;;;;;226.87;217.20;;;9.50;99.90;;;;;;4399544;32;20151;-63
2022/02/18 12:48:43;;;;;;;189.50;181.00;;;9.60;99.90;;;;;;4395671;32;20184;-64